Time;durP1;ratioP1;P1;durP2;ratioP2;P2;SDS_P1;SDS_P2;PMS_P1;PMS_P2;Temp;Humidity;BMP_temperature;BMP_pressure;BME280_temperature;BME280_humidity;BME280_pressure;Samples;Min_cycle;Max_cycle;Signal;HPM_P1;HPM_P2
2023/09/17 00:01:35;;;;;;;8.17;7.47;;;;;;;22.27;82.36;100020.00;5098555;28;20194;-62
2023/09/17 00:04:03;;;;;;;7.33;6.83;;;;;;;22.36;82.31;100023.84;5109370;28;20235;-62
2023/09/17 00:06:30;;;;;;;7.97;7.40;;;;;;;22.45;82.00;100027.72;5109784;28;20195;-63
2023/09/17 00:08:57;;;;;;;7.30;6.60;;;;;;;22.47;81.53;100031.00;5091363;28;20199;-62
2023/09/17 00:11:24;;;;;;;9.63;6.87;;;;;;;22.47;81.88;100030.19;5087947;28;20211;-62
2023/09/17 00:13:50;;;;;;;8.27;6.87;;;;;;;22.51;81.89;100026.72;5088722;28;20195;-62
2023/09/17 00:16:18;;;;;;;7.23;6.63;;;;;;;22.56;82.08;100025.91;5089271;28;20187;-62
2023/09/17 00:18:45;;;;;;;7.33;6.57;;;;;;;22.21;83.40;100023.72;5079534;28;20249;-62
2023/09/17 00:21:12;;;;;;;7.33;6.70;;;;;;;22.31;83.43;100009.47;5070696;28;20196;-62
2023/09/17 00:23:39;;;;;;;7.70;7.00;;;;;;;22.03;84.66;100010.59;5073760;28;20199;-62
2023/09/17 00:26:06;;;;;;;8.70;7.90;;;;;;;22.03;84.81;100007.88;5074808;28;20192;-61
2023/09/17 00:28:33;;;;;;;7.63;6.97;;;;;;;22.10;84.63;100015.78;5074980;28;20197;-61
2023/09/17 00:30:59;;;;;;;7.03;6.33;;;;;;;22.19;84.44;100012.34;5083137;28;20220;-62
2023/09/17 00:33:28;;;;;;;8.90;7.47;;;;;;;22.27;84.47;100020.00;5094353;28;20225;-62
2023/09/17 00:35:54;;;;;;;8.70;7.77;;;;;;;22.29;84.51;100007.00;5094875;28;20201;-62
2023/09/17 00:38:21;;;;;;;7.90;7.30;;;;;;;22.33;84.09;100008.13;5094359;28;20192;-64
2023/09/17 00:40:48;;;;;;;7.40;6.80;;;;;;;22.33;84.03;100013.53;5074118;28;20656;-62
2023/09/17 00:43:14;;;;;;;7.20;6.70;;;;;;;22.33;84.02;100005.41;5074972;28;20273;-62
2023/09/17 00:45:42;;;;;;;7.43;6.80;;;;;;;22.43;83.88;100008.22;5074735;28;20192;-62
2023/09/17 00:48:10;;;;;;;11.57;7.80;;;;;;;22.49;83.47;100007.19;5074161;28;20192;-62
2023/09/17 00:50:39;;;;;;;9.47;7.43;;;;;;;22.37;83.95;100003.03;5090388;28;20269;-62
2023/09/17 00:53:06;;;;;;;8.57;7.93;;;;;;;22.38;83.73;99999.22;5094673;28;20663;-61
2023/09/17 00:55:33;;;;;;;8.37;7.67;;;;;;;22.37;84.05;99997.59;5094916;28;20249;-61
2023/09/17 00:58:01;;;;;;;7.33;6.47;;;;;;;22.41;83.99;99994.09;5094553;28;20199;-62
2023/09/17 01:00:29;;;;;;;8.00;7.20;;;;;;;22.45;83.96;99999.81;5094439;28;20226;-62
2023/09/17 01:02:56;;;;;;;9.43;8.80;;;;;;;22.35;83.92;100000.56;5074589;28;20714;-62
2023/09/17 01:05:22;;;;;;;9.27;8.40;;;;;;;22.28;84.47;99999.97;5074137;28;20196;-62
2023/09/17 01:07:51;;;;;;;9.30;8.23;;;;;;;22.29;84.78;100004.31;5081824;28;20257;-63
2023/09/17 01:10:18;;;;;;;8.33;7.53;;;;;;;22.31;84.59;100013.00;5092988;28;20289;-62
2023/09/17 01:12:45;;;;;;;8.27;7.27;;;;;;;22.32;84.68;100006.50;5094472;28;20651;-62
2023/09/17 01:15:12;;;;;;;9.83;8.10;;;;;;;22.33;84.51;100002.72;5094618;28;20188;-61
2023/09/17 01:17:39;;;;;;;7.60;7.20;;;;;;;22.37;84.69;100006.53;5093987;28;20187;-62
2023/09/17 01:20:24;;;;;;;9.10;8.17;;;;;;;22.39;84.28;100000.84;5084634;28;20626;-62
2023/09/17 01:22:56;;;;;;;7.73;7.03;;;;;;;22.05;85.59;99994.91;5074211;28;20275;-61
2023/09/17 01:25:36;;;;;;;8.97;8.17;;;;;;;22.18;85.57;99989.09;5074001;28;20183;-61
2023/09/17 01:28:05;;;;;;;9.07;8.27;;;;;;;22.16;85.23;99996.63;5073669;28;20191;-61
2023/09/17 01:30:32;;;;;;;9.13;8.13;;;;;;;22.14;86.18;99993.38;5076206;28;20220;-61
2023/09/17 01:33:01;;;;;;;10.83;9.77;;;;;;;22.17;86.07;99998.25;5091369;28;20649;-61
2023/09/17 01:35:29;;;;;;;10.50;9.47;;;;;;;22.16;85.87;99995.78;5093624;28;20685;-61
2023/09/17 01:38:00;;;;;;;10.20;9.43;;;;;;;21.96;86.55;99988.34;5093784;28;20187;-61
2023/09/17 01:40:27;;;;;;;9.40;8.40;;;;;;;22.08;86.84;99994.41;5093533;28;20606;-61
2023/09/17 01:42:56;;;;;;;9.63;8.93;;;;;;;22.14;86.26;99993.38;5093665;28;20273;-62
2023/09/17 01:45:26;;;;;;;9.40;8.77;;;;;;;22.17;86.18;99992.84;5074088;28;20253;-62
2023/09/17 01:47:53;;;;;;;10.17;8.87;;;;;;;22.21;86.35;99985.03;5073991;28;20184;-61
2023/09/17 01:50:23;;;;;;;9.60;8.70;;;;;;;22.04;87.16;99985.16;5073328;28;20765;-61
2023/09/17 01:52:50;;;;;;;10.10;9.07;;;;;;;22.08;86.64;99988.97;5074177;28;20275;-61
2023/09/17 01:55:16;;;;;;;9.30;8.50;;;;;;;22.12;86.51;99984.69;5074094;28;20196;-62
2023/09/17 01:57:43;;;;;;;8.60;7.90;;;;;;;22.16;86.98;99985.81;5093683;28;20187;-61
2023/09/17 02:00:16;;;;;;;9.70;8.67;;;;;;;22.21;86.62;99982.31;5092167;28;20629;-62
2023/09/17 02:02:47;;;;;;;9.60;8.80;;;;;;;22.23;86.45;99991.00;5112996;28;20183;-62
2023/09/17 02:05:16;;;;;;;9.87;8.63;;;;;;;22.29;86.34;99996.19;5112267;27;20210;-61
2023/09/17 02:07:43;;;;;;;9.00;8.27;;;;;;;22.33;86.19;99985.66;5104176;27;20199;-62
2023/09/17 02:10:09;;;;;;;9.43;8.53;;;;;;;22.37;85.91;99984.88;5090103;28;20660;-61
2023/09/17 02:12:36;;;;;;;8.37;7.67;;;;;;;22.43;85.63;99988.44;5091328;28;20260;-62
2023/09/17 02:15:04;;;;;;;10.77;9.63;;;;;;;22.40;85.45;99981.66;5090916;28;20667;-61
2023/09/17 02:17:31;;;;;;;10.40;9.37;;;;;;;22.32;85.75;99986.72;5090951;28;20279;-62
2023/09/17 02:19:59;;;;;;;11.37;10.37;;;;;;;22.25;86.48;99983.44;5085716;28;20218;-62
2023/09/17 02:22:25;;;;;;;10.17;9.37;;;;;;;22.12;86.69;99984.69;5070693;28;20249;-61
2023/09/17 02:24:52;;;;;;;10.83;9.17;;;;;;;22.00;87.86;99989.47;5072131;28;20680;-62
2023/09/17 02:27:18;;;;;;;10.77;9.83;;;;;;;21.89;87.94;99993.13;5073295;28;20630;-61
2023/09/17 02:29:45;;;;;;;8.83;8.13;;;;;;;22.00;88.17;99997.56;5084762;28;20191;-61
2023/09/17 02:32:12;;;;;;;9.77;8.90;;;;;;;22.13;87.55;99991.72;5092755;28;20226;-61
2023/09/17 02:34:39;;;;;;;9.87;9.00;;;;;;;22.20;86.93;99991.50;5092801;28;20196;-61
2023/09/17 02:37:07;;;;;;;10.33;9.43;;;;;;;22.20;87.02;99986.91;5093276;28;20231;-61
2023/09/17 02:39:35;;;;;;;8.63;7.93;;;;;;;22.29;86.57;99988.06;5080884;28;20192;-61
2023/09/17 02:42:02;;;;;;;9.60;9.00;;;;;;;22.33;86.22;99985.66;5072163;28;20228;-61
2023/09/17 02:44:28;;;;;;;9.40;8.63;;;;;;;22.34;86.27;99996.22;5073040;28;20205;-61
2023/09/17 02:46:55;;;;;;;10.40;9.23;;;;;;;22.39;85.83;99990.84;5072415;28;20191;-60
2023/09/17 02:49:22;;;;;;;10.47;9.53;;;;;;;22.41;85.60;99988.69;5072453;28;20245;-61
2023/09/17 02:51:51;;;;;;;10.97;9.87;;;;;;;22.37;85.20;99982.16;5086312;28;20223;-61
2023/09/17 02:54:19;;;;;;;9.97;8.27;;;;;;;22.30;85.92;99981.56;5092704;28;20282;-60
2023/09/17 02:56:45;;;;;;;10.97;9.93;;;;;;;22.31;86.09;99988.63;5092915;28;20203;-60
2023/09/17 02:59:12;;;;;;;9.10;8.27;;;;;;;22.37;86.13;99986.78;5091991;28;20237;-60
2023/09/17 03:01:40;;;;;;;10.83;9.77;;;;;;;22.38;85.01;99983.00;5092111;28;20226;-60
2023/09/17 03:04:07;;;;;;;11.27;10.37;;;;;;;22.33;85.09;99981.06;5078172;28;20224;-61
2023/09/17 03:06:34;;;;;;;11.60;10.47;;;;;;;22.29;83.83;99985.34;5070796;28;20192;-60
2023/09/17 03:09:01;;;;;;;10.50;9.80;;;;;;;22.10;83.58;99981.44;5089561;28;20274;-61
2023/09/17 03:11:29;;;;;;;11.93;11.03;;;;;;;22.10;83.31;99980.59;5092069;28;20764;-60
2023/09/17 03:13:57;;;;;;;12.07;11.03;;;;;;;22.13;82.76;99980.91;5092613;28;20246;-60
2023/09/17 03:16:23;;;;;;;11.83;10.67;;;;;;;22.12;83.01;99979.28;5090614;28;20274;-60
2023/09/17 03:18:50;;;;;;;11.50;10.43;;;;;;;22.05;82.47;99973.25;5092369;28;20187;-60
2023/09/17 03:21:18;;;;;;;14.93;11.00;;;;;;;21.95;82.82;99981.31;5092103;28;20199;-60
2023/09/17 03:23:45;;;;;;;11.03;9.73;;;;;;;22.01;83.19;99982.16;5083137;28;20250;-61
2023/09/17 03:26:11;;;;;;;11.57;10.43;;;;;;;22.04;82.80;99981.63;5071513;28;20570;-61
2023/09/17 03:28:39;;;;;;;11.73;10.70;;;;;;;22.02;81.47;99979.22;5071147;28;20663;-61
2023/09/17 03:31:07;;;;;;;10.70;9.43;;;;;;;22.01;81.69;99982.16;5071070;28;20223;-61
2023/09/17 03:33:33;;;;;;;11.83;10.80;;;;;;;22.07;81.55;99981.13;5077152;28;20213;-61
2023/09/17 03:36:03;;;;;;;12.07;10.87;;;;;;;22.06;80.84;99979.50;5091941;28;20248;-60
2023/09/17 03:38:29;;;;;;;12.77;11.47;;;;;;;22.00;81.61;99985.94;5092009;28;20586;-61
2023/09/17 03:40:59;;;;;;;10.93;9.87;;;;;;;21.97;81.98;99976.44;5091540;28;20231;-60
2023/09/17 03:43:27;;;;;;;11.93;10.77;;;;;;;21.98;81.46;99974.56;5089187;28;20281;-60
2023/09/17 03:45:55;;;;;;;12.77;11.50;;;;;;;21.92;81.84;99973.69;5091562;28;20202;-60
2023/09/17 03:48:21;;;;;;;12.40;11.20;;;;;;;21.89;82.24;99971.50;5090543;28;20259;-60
2023/09/17 03:50:49;;;;;;;12.17;11.27;;;;;;;21.89;82.32;99971.50;5090815;28;20268;-61
2023/09/17 03:53:16;;;;;;;12.83;11.70;;;;;;;21.89;82.55;99976.91;5075271;28;20261;-61
2023/09/17 03:55:43;;;;;;;10.87;9.83;;;;;;;21.86;82.42;99973.91;5070711;28;20282;-61
2023/09/17 03:58:10;;;;;;;13.50;12.20;;;;;;;21.87;83.02;99983.66;5070627;28;20273;-61
2023/09/17 04:00:36;;;;;;;13.53;11.43;;;;;;;21.93;83.46;99980.72;5071749;28;21618;-60
2023/09/17 04:03:08;;;;;;;12.90;11.77;;;;;;;21.95;82.42;99984.00;5070181;28;20655;-61
2023/09/17 04:05:35;;;;;;;11.93;10.93;;;;;;;21.96;82.74;99980.22;5087235;28;20267;-62
2023/09/17 04:08:02;;;;;;;17.43;11.43;;;;;;;22.02;82.92;99990.03;5080534;28;20196;-62
2023/09/17 04:10:29;;;;;;;12.47;11.33;;;;;;;22.06;82.71;99990.31;5069295;28;20545;-62
2023/09/17 04:12:55;;;;;;;13.03;10.93;;;;;;;22.04;82.69;99990.56;5069179;28;20199;-62
2023/09/17 04:15:22;;;;;;;13.67;12.30;;;;;;;22.07;82.54;99995.47;5069932;28;20192;-61
2023/09/17 04:17:50;;;;;;;13.27;11.67;;;;;;;22.07;82.47;99990.06;5089144;28;20579;-61
2023/09/17 04:20:19;;;;;;;13.43;11.27;;;;;;;22.10;82.62;99992.25;5090491;28;20191;-61
2023/09/17 04:22:48;;;;;;;13.27;11.73;;;;;;;22.08;82.63;99991.69;5090640;28;20199;-61
2023/09/17 04:25:16;;;;;;;10.13;9.13;;;;;;;22.13;84.44;99991.72;5091554;28;20245;-72
2023/09/17 04:27:44;;;;;;;10.43;9.47;;;;;;;22.46;84.07;99996.88;5086674;28;20206;-72
2023/09/17 04:30:13;;;;;;;10.83;9.87;;;;;;;22.92;81.57;100001.50;5070988;28;20275;-72
2023/09/17 04:32:41;;;;;;;10.30;9.50;;;;;;;23.24;78.37;100010.31;5070301;28;20224;-72
2023/09/17 04:35:09;;;;;;;12.23;11.17;;;;;;;23.44;77.33;100010.38;5082639;28;20197;-72
2023/09/17 04:37:39;;;;;;;12.87;11.67;;;;;;;23.60;77.29;100009.34;5090418;28;20193;-73
2023/09/17 04:40:08;;;;;;;12.93;10.87;;;;;;;23.81;77.20;100013.72;5089111;28;20571;-73
2023/09/17 04:42:36;;;;;;;19.03;17.33;;;;;;;24.11;77.42;100013.78;5091186;28;20232;-73
2023/09/17 04:45:04;;;;;;;12.83;11.60;;;;;;;24.36;71.00;100029.25;5089480;28;20222;-74
2023/09/17 04:47:31;;;;;;;12.83;11.77;;;;;;;24.38;72.02;100027.88;5072791;28;20191;-71
2023/09/17 04:49:57;;;;;;;12.83;11.57;;;;;;;24.24;70.69;100021.38;5080681;28;20246;-72
2023/09/17 04:52:24;;;;;;;12.17;10.87;;;;;;;24.31;69.87;100027.38;5089273;28;20219;-70
2023/09/17 04:54:52;;;;;;;12.70;11.47;;;;;;;24.34;70.05;100029.53;5090664;28;20247;-70
2023/09/17 04:57:19;;;;;;;12.47;11.37;;;;;;;24.56;69.58;100030.06;5090570;28;20217;-71
2023/09/17 04:59:46;;;;;;;12.47;11.40;;;;;;;24.55;70.06;100041.19;5090518;28;20191;-70
2023/09/17 05:02:14;;;;;;;11.67;10.60;;;;;;;24.54;69.07;100043.09;5090492;28;20208;-72
2023/09/17 05:04:40;;;;;;;12.97;10.30;;;;;;;24.70;68.89;100042.00;5089078;28;20198;-71
2023/09/17 05:07:07;;;;;;;22.97;11.47;;;;;;;24.78;70.05;100044.19;5088597;28;20685;-72
2023/09/17 05:09:34;;;;;;;14.57;11.50;;;;;;;24.90;67.92;100049.31;5079303;28;20619;-71
2023/09/17 05:12:02;;;;;;;12.00;11.00;;;;;;;24.91;67.45;100046.31;5094317;28;20642;-71
2023/09/17 05:14:29;;;;;;;36.30;11.27;;;;;;;25.14;68.27;100038.66;5093913;28;20294;-70
2023/09/17 05:16:55;;;;;;;12.17;11.17;;;;;;;25.28;66.83;100043.25;5083716;28;20649;-66
2023/09/17 05:19:22;;;;;;;18.53;10.90;;;;;;;25.64;67.70;100041.97;5093686;28;20187;-66
2023/09/17 05:21:49;;;;;;;21.80;10.63;;;;;;;26.11;65.66;100052.31;5092766;28;20202;-66
2023/09/17 05:24:16;;;;;;;12.17;10.97;;;;;;;26.58;63.63;100053.28;5093703;28;20199;-67
2023/09/17 05:26:42;;;;;;;16.43;11.20;;;;;;;26.90;62.49;100061.69;5091899;28;20290;-67
2023/09/17 05:29:15;;;;;;;16.93;11.17;;;;;;;27.07;61.75;100067.50;5093586;28;20199;-67
2023/09/17 05:31:42;;;;;;;16.13;12.03;;;;;;;27.10;61.61;100064.22;5093788;28;20246;-66
2023/09/17 05:34:08;;;;;;;19.00;11.07;;;;;;;27.13;61.24;100065.53;5093792;28;20191;-67
2023/09/17 05:36:35;;;;;;;18.60;10.93;;;;;;;27.17;61.09;100066.59;5091797;28;20191;-66
2023/09/17 05:39:02;;;;;;;13.80;12.50;;;;;;;27.38;60.63;100068.00;5093357;28;20595;-67
2023/09/17 05:41:29;;;;;;;13.17;11.77;;;;;;;27.84;58.99;100074.50;5093350;28;20227;-68
2023/09/17 05:43:55;;;;;;;15.53;12.60;;;;;;;28.12;56.37;100079.00;5093728;28;20244;-67
2023/09/17 05:46:24;;;;;;;15.13;12.47;;;;;;;28.22;56.52;100078.88;5093069;28;20187;-67
2023/09/17 05:48:50;;;;;;;14.50;12.43;;;;;;;28.29;56.18;100085.56;5082475;28;20253;-67
2023/09/17 05:51:17;;;;;;;13.73;12.40;;;;;;;28.31;55.90;100079.81;5092815;28;20195;-67
2023/09/17 05:53:44;;;;;;;13.23;12.03;;;;;;;28.42;55.90;100084.06;5093287;28;20187;-66
2023/09/17 05:56:11;;;;;;;13.40;12.17;;;;;;;28.44;55.77;100087.28;5092553;28;20192;-66
2023/09/17 05:58:37;;;;;;;14.03;12.60;;;;;;;28.65;54.47;100083.09;5092040;28;20286;-66
2023/09/17 06:01:04;;;;;;;13.70;12.60;;;;;;;28.76;54.74;100079.91;5094346;28;20650;-67
2023/09/17 06:03:33;;;;;;;15.20;13.57;;;;;;;28.56;54.73;100080.25;5112134;28;20282;-67
2023/09/17 06:06:00;;;;;;;15.27;13.00;;;;;;;28.72;55.10;100075.31;5085293;28;20192;-67
2023/09/17 06:08:28;;;;;;;14.37;12.87;;;;;;;28.73;53.57;100079.66;5083143;28;20294;-68
2023/09/17 06:10:55;;;;;;;22.47;13.53;;;;;;;28.88;54.10;100071.19;5082984;28;20196;-67
2023/09/17 06:13:22;;;;;;;16.70;12.40;;;;;;;28.77;54.31;100069.75;5082342;28;20211;-67
2023/09/17 06:15:49;;;;;;;15.10;12.63;;;;;;;28.38;54.93;100074.78;5079589;28;20191;-67
2023/09/17 06:18:16;;;;;;;13.87;12.57;;;;;;;28.44;55.11;100070.88;5082289;28;20189;-68
2023/09/17 06:20:45;;;;;;;18.43;12.90;;;;;;;28.66;55.00;100077.31;5081414;28;20226;-67
2023/09/17 06:23:12;;;;;;;14.87;12.93;;;;;;;28.88;53.13;100093.88;5082317;28;20223;-68
2023/09/17 06:25:39;;;;;;;13.03;11.90;;;;;;;28.77;53.89;100086.97;5080490;28;20663;-68
2023/09/17 06:28:06;;;;;;;13.50;12.17;;;;;;;28.90;53.43;100090.84;5080445;28;20295;-67
2023/09/17 06:30:33;;;;;;;13.60;11.53;;;;;;;28.77;53.65;100103.38;5080521;28;20615;-67
2023/09/17 06:33:01;;;;;;;14.43;11.23;;;;;;;28.52;55.78;100094.81;5084669;28;20292;-67
2023/09/17 06:35:28;;;;;;;17.30;12.43;;;;;;;28.41;55.39;100099.63;5090199;28;20614;-68
2023/09/17 06:37:56;;;;;;;12.33;11.20;;;;;;;28.24;56.65;100093.84;5087027;28;20192;-67
2023/09/17 06:40:23;;;;;;;14.20;11.37;;;;;;;28.38;57.03;100088.47;5091898;28;20737;-67
2023/09/17 06:42:50;;;;;;;17.40;12.00;;;;;;;28.66;55.72;100095.63;5092386;28;20740;-67
2023/09/17 06:45:18;;;;;;;15.17;11.60;;;;;;;28.96;54.83;100100.59;5091032;28;20240;-67
2023/09/17 06:47:44;;;;;;;16.73;11.90;;;;;;;28.79;55.04;100095.69;5091683;28;20203;-67
2023/09/17 06:50:11;;;;;;;14.10;12.23;;;;;;;28.56;55.40;100095.81;5091977;28;20569;-67
2023/09/17 06:52:38;;;;;;;14.03;12.63;;;;;;;28.32;56.30;100095.91;5092074;28;20343;-67
2023/09/17 06:55:06;;;;;;;16.70;14.00;;;;;;;28.22;57.41;100081.59;5071183;28;20192;-68
2023/09/17 06:57:33;;;;;;;15.37;13.83;;;;;;;28.04;58.01;100085.13;5071394;28;20208;-66
2023/09/17 06:59:59;;;;;;;14.93;13.43;;;;;;;27.97;57.68;100076.53;5091285;28;20195;-66
2023/09/17 07:02:26;;;;;;;20.60;14.83;;;;;;;27.74;58.74;100077.34;5091866;28;20203;-67
2023/09/17 07:04:53;;;;;;;19.37;15.50;;;;;;;27.80;58.40;100068.78;5091587;28;20674;-66
2023/09/17 07:07:20;;;;;;;17.83;16.03;;;;;;;27.89;58.71;100071.72;5086979;28;20196;-67
2023/09/17 07:09:46;;;;;;;18.93;15.50;;;;;;;28.08;58.16;100072.50;5088647;28;20195;-68
2023/09/17 07:12:16;;;;;;;16.97;15.10;;;;;;;28.10;58.88;100067.59;5092152;28;20219;-66
2023/09/17 07:14:43;;;;;;;18.53;16.70;;;;;;;28.17;57.69;100073.50;5091577;28;20195;-66
2023/09/17 07:17:10;;;;;;;20.93;15.33;;;;;;;27.91;58.99;100077.69;5090339;28;20195;-64
2023/09/17 07:19:36;;;;;;;26.37;16.03;;;;;;;28.08;58.77;100077.97;5091901;28;20202;-65
2023/09/17 07:22:03;;;;;;;19.03;16.20;;;;;;;27.99;58.84;100069.66;5087057;28;20264;-68
2023/09/17 07:24:30;;;;;;;18.07;15.77;;;;;;;27.78;59.02;100072.94;5090959;28;20299;-64
2023/09/17 07:26:56;;;;;;;17.53;15.73;;;;;;;27.57;60.04;100069.66;5089855;28;20187;-64
2023/09/17 07:29:26;;;;;;;20.00;17.43;;;;;;;27.77;58.97;100066.66;5090989;28;20191;-64
2023/09/17 07:31:53;;;;;;;19.00;17.17;;;;;;;28.31;58.82;100077.06;5090542;28;20693;-64
2023/09/17 07:34:19;;;;;;;17.97;15.63;;;;;;;28.32;57.05;100081.44;5084938;28;20567;-65
2023/09/17 07:36:46;;;;;;;18.73;16.77;;;;;;;27.79;58.81;100080.00;5090984;28;20739;-65
2023/09/17 07:39:13;;;;;;;17.73;15.93;;;;;;;27.35;60.08;100084.94;5091333;28;20210;-64
2023/09/17 07:41:40;;;;;;;20.57;16.40;;;;;;;27.31;60.47;100078.47;5091216;28;20647;-64
2023/09/17 07:44:07;;;;;;;17.67;16.00;;;;;;;27.19;61.54;100076.09;5089877;28;20744;-64
2023/09/17 07:46:35;;;;;;;22.07;16.97;;;;;;;26.98;62.60;100074.72;5091287;28;20188;-63
2023/09/17 07:49:01;;;;;;;17.50;15.80;;;;;;;26.84;63.65;100073.78;5090964;28;20617;-64
2023/09/17 07:51:28;;;;;;;21.60;15.37;;;;;;;26.89;62.64;100070.16;5091463;28;20192;-63
2023/09/17 07:53:55;;;;;;;18.87;17.10;;;;;;;26.69;63.23;100075.81;5089924;28;20214;-64
2023/09/17 07:56:22;;;;;;;17.87;15.40;;;;;;;26.87;63.17;100078.63;5090757;28;20199;-63
2023/09/17 07:58:48;;;;;;;16.93;15.33;;;;;;;27.49;61.75;100077.69;5090995;28;20666;-64
2023/09/17 08:01:15;;;;;;;19.20;14.87;;;;;;;27.76;60.44;100086.09;5091514;28;20568;-64
2023/09/17 08:03:43;;;;;;;21.37;15.03;;;;;;;28.14;58.71;100094.00;5105052;28;20283;-64
2023/09/17 08:06:11;;;;;;;16.63;14.80;;;;;;;28.56;57.48;100090.34;5088678;28;20270;-64
2023/09/17 08:08:38;;;;;;;16.00;14.23;;;;;;;28.82;56.00;100094.25;5079615;28;20187;-64
2023/09/17 08:11:04;;;;;;;15.87;12.87;;;;;;;28.91;55.22;100093.28;5090922;28;20199;-66
2023/09/17 08:13:31;;;;;;;15.20;13.77;;;;;;;29.07;53.21;100089.19;5090434;28;20244;-66
2023/09/17 08:15:57;;;;;;;14.57;13.13;;;;;;;29.38;53.87;100086.66;5088595;28;20579;-66
2023/09/17 08:18:24;;;;;;;14.50;12.03;;;;;;;29.59;51.93;100096.09;5088025;28;20728;-66
2023/09/17 08:20:52;;;;;;;15.07;13.70;;;;;;;29.85;50.75;100094.44;5090210;28;20534;-64
2023/09/17 08:23:19;;;;;;;15.03;13.50;;;;;;;30.25;50.07;100087.25;5090281;28;20199;-66
2023/09/17 08:25:46;;;;;;;14.33;13.03;;;;;;;30.63;49.34;100089.31;5089250;28;20319;-66
2023/09/17 08:28:15;;;;;;;13.57;12.47;;;;;;;30.72;47.15;100094.88;5090487;28;20304;-67
2023/09/17 08:30:42;;;;;;;13.87;12.23;;;;;;;30.69;47.63;100095.47;5090829;28;20191;-66
2023/09/17 08:33:10;;;;;;;12.57;11.67;;;;;;;30.80;45.61;100081.19;5090225;28;20208;-66
2023/09/17 08:35:37;;;;;;;13.37;12.17;;;;;;;30.25;46.45;100082.56;5090586;28;20202;-66
2023/09/17 08:38:06;;;;;;;13.60;12.30;;;;;;;30.58;46.95;100074.91;5090787;28;20203;-67
2023/09/17 08:40:35;;;;;;;17.20;13.60;;;;;;;30.60;46.46;100069.91;5090283;28;20265;-65
2023/09/17 08:43:04;;;;;;;14.03;12.70;;;;;;;30.92;45.72;100064.97;5090040;28;20282;-67
2023/09/17 08:45:31;;;;;;;13.87;12.47;;;;;;;31.12;43.81;100067.16;5093991;28;20198;-66
2023/09/17 08:47:58;;;;;;;14.50;13.13;;;;;;;30.65;45.39;100056.88;5094487;28;20236;-66
2023/09/17 08:50:25;;;;;;;13.57;12.37;;;;;;;30.56;46.22;100061.50;5094023;28;20199;-66
2023/09/17 08:52:55;;;;;;;17.03;12.93;;;;;;;30.51;45.17;100056.16;5094348;28;20242;-65
2023/09/17 08:55:24;;;;;;;13.90;12.50;;;;;;;30.53;44.92;100059.38;5094178;28;20195;-64
2023/09/17 08:58:07;;;;;;;14.67;13.23;;;;;;;30.54;45.61;100050.00;5094776;28;20204;-63
2023/09/17 09:00:38;;;;;;;14.77;13.23;;;;;;;30.53;45.47;100053.88;5094350;28;20180;-63
2023/09/17 09:03:07;;;;;;;13.50;12.43;;;;;;;30.81;45.02;100044.41;5094783;28;20187;-64
2023/09/17 09:05:35;;;;;;;12.80;11.70;;;;;;;30.93;44.13;100052.84;5093468;28;20191;-65
2023/09/17 09:08:03;;;;;;;13.63;12.00;;;;;;;31.01;44.39;100056.75;5085033;28;20275;-65
2023/09/17 09:10:31;;;;;;;16.87;15.13;;;;;;;31.27;42.34;100052.22;5089859;28;20260;-64
2023/09/17 09:13:00;;;;;;;14.90;12.43;;;;;;;31.53;41.07;100047.59;5094455;28;20280;-63
2023/09/17 09:15:27;;;;;;;20.40;18.47;;;;;;;31.31;44.72;100045.75;5092402;28;20201;-63
2023/09/17 09:17:55;;;;;;;13.30;12.20;;;;;;;31.40;42.76;100037.56;5093587;28;20202;-62
2023/09/17 09:20:21;;;;;;;17.20;15.67;;;;;;;31.20;43.30;100029.88;5093719;28;20244;-62
2023/09/17 09:22:48;;;;;;;13.90;12.43;;;;;;;31.40;41.93;100043.84;5094045;28;20195;-67
2023/09/17 09:25:16;;;;;;;14.57;12.63;;;;;;;31.57;42.03;100030.16;5093516;28;20658;-67
2023/09/17 09:27:44;;;;;;;13.70;12.30;;;;;;;31.61;41.32;100035.81;5093700;28;20191;-67
2023/09/17 09:30:14;;;;;;;17.60;12.67;;;;;;;31.63;40.57;100039.03;5093297;28;20592;-67
2023/09/17 09:32:42;;;;;;;12.47;11.37;;;;;;;31.49;39.88;100039.19;5093970;28;20222;-67
2023/09/17 09:35:10;;;;;;;12.97;10.37;;;;;;;31.43;39.65;100040.44;5093532;28;20192;-68
2023/09/17 09:37:37;;;;;;;14.27;10.67;;;;;;;31.66;39.01;100025.47;5096728;28;20195;-67
2023/09/17 09:40:03;;;;;;;11.10;9.97;;;;;;;31.81;38.65;100036.00;5102806;28;20727;-67
2023/09/17 09:42:31;;;;;;;11.40;10.27;;;;;;;31.64;38.62;100024.97;5093295;28;20194;-67
2023/09/17 09:44:59;;;;;;;13.87;10.53;;;;;;;31.10;40.27;100019.97;5089486;28;20200;-67
2023/09/17 09:47:26;;;;;;;12.27;10.63;;;;;;;31.00;41.35;100019.47;5092783;28;20192;-67
2023/09/17 09:49:53;;;;;;;11.93;10.83;;;;;;;31.17;41.16;100014.03;5093783;28;20187;-67
2023/09/17 09:52:23;;;;;;;13.73;11.13;;;;;;;31.34;40.05;100014.91;5093512;28;20199;-67
2023/09/17 09:54:49;;;;;;;13.40;12.00;;;;;;;31.51;40.10;100012.19;5091119;28;20279;-67
2023/09/17 09:57:18;;;;;;;14.67;11.53;;;;;;;31.55;40.08;100012.34;5093212;28;20191;-67
2023/09/17 09:59:47;;;;;;;12.00;11.00;;;;;;;31.54;39.48;100008.81;5093621;28;20187;-67
2023/09/17 10:02:17;;;;;;;14.23;11.40;;;;;;;31.65;39.04;100015.59;5083707;28;20747;-66
2023/09/17 10:04:45;;;;;;;13.47;12.03;;;;;;;31.55;39.33;100004.09;5077246;28;20227;-67
2023/09/17 10:07:13;;;;;;;13.67;11.37;;;;;;;31.35;40.03;99991.03;5073899;28;20206;-67
2023/09/17 10:09:41;;;;;;;17.87;12.13;;;;;;;31.32;39.91;99992.44;5091991;28;20724;-66
2023/09/17 10:12:08;;;;;;;21.83;15.87;;;;;;;31.21;39.63;99993.84;5092802;28;20539;-67
2023/09/17 10:14:37;;;;;;;16.53;12.00;;;;;;;31.33;39.19;99990.50;5092581;28;20695;-66
2023/09/17 10:17:06;;;;;;;11.67;10.43;;;;;;;31.21;39.65;99991.13;5091189;28;20279;-67
2023/09/17 10:19:36;;;;;;;12.20;10.67;;;;;;;31.22;39.60;99984.47;5092381;28;20229;-66
2023/09/17 10:22:06;;;;;;;11.60;10.37;;;;;;;31.19;39.26;99989.81;5093114;28;20203;-67
2023/09/17 10:24:36;;;;;;;12.27;9.30;;;;;;;30.97;38.82;99982.47;5092994;28;20195;-67
2023/09/17 10:27:04;;;;;;;12.43;10.27;;;;;;;30.99;39.29;99974.72;5091342;28;20278;-67
2023/09/17 10:29:33;;;;;;;14.53;10.40;;;;;;;31.11;39.42;99972.19;5092875;28;20255;-66
2023/09/17 10:32:02;;;;;;;15.20;13.87;;;;;;;31.03;38.83;99986.69;5092802;28;20204;-67
2023/09/17 10:34:32;;;;;;;12.70;9.53;;;;;;;30.89;38.09;99980.53;5091698;28;20314;-67
2023/09/17 10:37:03;;;;;;;16.10;9.27;;;;;;;30.76;37.40;99992.41;5092055;28;20187;-67
2023/09/17 10:39:30;;;;;;;12.10;8.37;;;;;;;30.86;36.75;99989.38;5086691;28;20184;-67
2023/09/17 10:41:59;;;;;;;11.70;8.67;;;;;;;30.93;37.49;99984.25;5085929;28;20216;-67
2023/09/17 10:44:28;;;;;;;16.40;9.33;;;;;;;31.02;37.42;99979.59;5073976;28;20261;-66
2023/09/17 10:46:57;;;;;;;17.77;10.33;;;;;;;30.96;38.00;99969.91;5091462;28;20248;-67
2023/09/17 10:49:26;;;;;;;12.30;9.43;;;;;;;30.84;38.90;99966.94;5092579;28;20628;-67
2023/09/17 10:51:54;;;;;;;12.47;8.87;;;;;;;30.91;38.29;99967.28;5092151;28;20195;-65
2023/09/17 10:54:22;;;;;;;15.20;10.63;;;;;;;30.84;38.43;99966.94;5092124;28;20215;-65
2023/09/17 10:56:49;;;;;;;9.60;8.50;;;;;;;30.97;37.63;99966.00;5090346;28;20608;-65
2023/09/17 10:59:18;;;;;;;11.10;8.43;;;;;;;30.87;37.85;99949.03;5092508;28;20249;-66
2023/09/17 11:01:46;;;;;;;15.60;8.57;;;;;;;30.94;38.24;99950.19;5091919;28;20191;-64
2023/09/17 11:04:16;;;;;;;11.33;8.57;;;;;;;31.04;37.15;99947.16;5092448;28;20280;-65
2023/09/17 11:06:45;;;;;;;10.20;9.03;;;;;;;31.06;38.08;99942.13;5090366;28;20190;-65
2023/09/17 11:09:13;;;;;;;11.87;8.80;;;;;;;31.12;37.47;99940.06;5073352;28;20254;-65
2023/09/17 11:11:42;;;;;;;12.87;9.50;;;;;;;30.99;37.25;99935.50;5091031;28;20260;-65
2023/09/17 11:14:11;;;;;;;13.70;10.23;;;;;;;31.01;36.99;99928.56;5092036;28;20223;-65
2023/09/17 11:16:38;;;;;;;13.03;8.83;;;;;;;31.20;37.88;99931.81;5089988;28;20274;-64
2023/09/17 11:19:06;;;;;;;9.60;7.87;;;;;;;30.73;36.44;99932.69;5091576;28;20213;-65